• Join FlightAware (Why Join?)
  • Login
  • US Flag 
12:51PM EDT


 

Airport Tracker/Info


-or-


 

Live Flight TrackerFlight Track Log ✈ LBQ870 ✈ 23-Jul-2013 ✈ KIAD - KLZU

Flight Track Log - Related Links

Times and Time Zones

All times are in EDT time to prevent confusion due to time zone crossing. See the LBQ870 flight status page for this flight to view local times or setup timezone preferences in your user account.

Time Position Orientation Groundspeed Altitude Reporting Facility
EDT Latitude Longitude Course Direction KTS MPH feet Rate Location/Type
07:40AM 38.9333 -77.5833 270° West 127 146 4,000  Level Potomac TRACON
07:41AM 38.9167 -77.6167 237° Southwest 127 146 4,900 420 Climbing Potomac TRACON
07:42AM 38.9167 -77.6667 270° West 170 196 4,900  Level Potomac TRACON
07:43AM 38.8833 -77.7167 229° Southwest 187 215 4,900 60 Level Potomac TRACON
07:44AM 38.7403 -77.7229 229° Southwest  Level FlightAware Approximate
07:44AM 38.8500 -77.7667 229° Southwest 186 214 5,100  Level Potomac TRACON
07:45AM 38.8167 -77.8000 218° Southwest 167 192 5,800 540 Climbing Potomac TRACON
07:46AM 38.7833 -77.8500 229° Southwest 165 190 6,200 420 Climbing Potomac TRACON
07:47AM 38.7500 -77.8833 218° Southwest 172 198 6,700 480 Climbing Potomac TRACON
07:48AM 38.7167 -77.9333 229° Southwest 164 189 7,200 420 Climbing Potomac TRACON
07:49AM 38.6833 -77.9833 230° Southwest 163 188 7,600 300 Climbing Potomac TRACON
07:50AM 38.6500 -78.0167 218° Southwest 170 196 7,900 120 Climbing Potomac TRACON
07:51AM 38.6167 -78.0667 230° Southwest 182 209 7,900  Level Potomac TRACON
07:52AM 38.5833 -78.1167 230° Southwest 189 217 7,900  Level Potomac TRACON
07:53AM 38.5500 -78.1667 230° Southwest 191 220 7,900  Level Potomac TRACON
07:54AM 38.5167 -78.2167 230° Southwest 192 221 7,900  Level Potomac TRACON
07:55AM 38.4833 -78.2667 230° Southwest 196 226 8,000  Climbing Potomac TRACON
07:56AM 38.4333 -78.3167 218° Southwest 195 224 8,000  Level Potomac TRACON
07:57AM 38.4000 -78.3667 230° Southwest 196 226 8,000  Level Potomac TRACON
07:58AM 38.3667 -78.4167 230° Southwest 194 223 8,000  Level Potomac TRACON
07:59AM 38.3333 -78.4667 230° Southwest 191 220 8,000  Level Potomac TRACON
08:00AM 38.3000 -78.5167 230° Southwest 189 217 8,000  Level Potomac TRACON
08:01AM 38.2667 -78.5667 230° Southwest 192 221 8,000  Level Potomac TRACON
08:02AM 38.2167 -78.6167 218° Southwest 191 220 8,000  Level Potomac TRACON
08:03AM 38.1833 -78.6667 230° Southwest 190 219 8,000  Level Potomac TRACON
08:04AM 38.1500 -78.7167 230° Southwest 194 223 8,000  Level Potomac TRACON
08:05AM 38.1167 -78.7667 230° Southwest 199 229 8,000  Level Potomac TRACON
08:06AM 38.0833 -78.8167 230° Southwest 193 222 8,000  Level Potomac TRACON
08:07AM 38.0500 -78.8667 230° Southwest 199 229 8,000  Level Potomac TRACON
08:08AM 38.0167 -78.9167 230° Southwest 190 219 8,000  Level Potomac TRACON
08:09AM 37.9833 -78.9667 230° Southwest 193 222 8,000  Level Potomac TRACON
08:10AM 37.9500 -79.0167 230° Southwest 193 222 8,000  Level Potomac TRACON
08:11AM 37.9000 -79.0667 218° Southwest 198 228 8,000  Level Potomac TRACON
08:13AM 37.8180 -79.0913 193° South  Level FlightAware Approximate
08:20AM 37.5952 -79.3948 229° Southwest  Level Estimated
08:21AM 37.5527 -79.4194 205° Southwest  Level FlightAware Approximate
08:22AM 37.5209 -79.4628 227° Southwest  Level Estimated
08:23AM 37.4881 -79.5048 226° Southwest  Level FlightAware Approximate
08:24AM 37.4553 -79.5469 225° Southwest  Level FlightAware Approximate
08:25AM 37.4225 -79.5889 225° Southwest  Level FlightAware Approximate
08:26AM 37.3897 -79.6308 225° Southwest  Level FlightAware Approximate
08:27AM 37.3568 -79.6728 225° Southwest  Level FlightAware Approximate
08:28AM 37.3239 -79.7146 225° Southwest  Level FlightAware Approximate
08:29AM 37.2910 -79.7565 225° Southwest  Level FlightAware Approximate
08:30AM 37.2581 -79.7983 225° Southwest  Level FlightAware Approximate
08:31AM 37.2252 -79.8401 225° Southwest  Level FlightAware Approximate
08:32AM 37.1923 -79.8818 225° Southwest  Level FlightAware Approximate
08:33AM 37.1594 -79.9235 225° Southwest  Level FlightAware Approximate
08:33AM 37.0872 -80.1517 225° Southwest 189 217 8,000  Level Atlanta Center
08:34AM 37.1264 -79.9652 225° Southwest  Level FlightAware Approximate
08:34AM 37.0511 -80.1978 226° Southwest 189 217 8,000  Level Atlanta Center
08:35AM 37.0934 -80.0068 225° Southwest  Level FlightAware Approximate
08:35AM 37.0153 -80.2461 227° Southwest 189 217 8,000  Level Atlanta Center
08:36AM 37.0604 -80.0484 225° Southwest  Level FlightAware Approximate
08:36AM 36.9811 -80.2894 225° Southwest 194 223 8,000  Level Atlanta Center
08:37AM 37.0274 -80.0900 225° Southwest  Level FlightAware Approximate
08:37AM 36.9431 -80.3406 227° Southwest 199 229 8,000  Level Atlanta Center
08:38AM 36.9944 -80.1315 225° Southwest  Level FlightAware Approximate
08:38AM 36.9069 -80.3889 227° Southwest 199 229 8,000  Level Atlanta Center
08:39AM 36.8628 -80.4428 224° Southwest 199 229 8,000  Level Atlanta Center
08:40AM 36.8244 -80.4939 227° Southwest 199 229 8,000  Level Atlanta Center
08:41AM 36.7864 -80.5422 225° Southwest 199 229 8,000  Level Atlanta Center
08:42AM 36.7481 -80.5931 227° Southwest 199 229 8,000  Level Atlanta Center
08:43AM 36.7097 -80.6389 224° Southwest 199 229 8,000  Level Atlanta Center
08:44AM 36.6717 -80.6922 228° Southwest 199 229 8,000  Level Atlanta Center
08:45AM 36.6333 -80.7403 225° Southwest 199 229 8,000  Level Atlanta Center
08:46AM 36.5969 -80.7858 225° Southwest 199 229 8,000  Level Atlanta Center
08:47AM 36.5608 -80.8339 227° Southwest 199 229 8,000  Level Atlanta Center
08:48AM 36.5222 -80.8794 223° Southwest 199 229 8,000  Level Atlanta Center
08:49AM 36.4819 -80.9300 225° Southwest 199 229 8,000  Level Atlanta Center
08:50AM 36.4436 -80.9806 227° Southwest 199 229 8,000  Level Atlanta Center
08:51AM 36.4053 -81.0336 228° Southwest 199 229 8,000  Level Atlanta Center
08:52AM 36.3667 -81.0789 223° Southwest 199 229 8,000  Level Atlanta Center
08:53AM 36.3242 -81.1344 226° Southwest 199 229 8,000  Level Atlanta Center
08:54AM 36.2836 -81.1850 225° Southwest 199 229 8,000  Level Atlanta Center
08:55AM 36.2431 -81.2328 224° Southwest 199 229 8,000  Level Atlanta Center
08:56AM 36.2067 -81.2803 226° Southwest 204 235 8,100  Climbing Atlanta Center
08:57AM 36.1681 -81.3331 228° Southwest 198 228 8,100  Level Atlanta Center
08:58AM 36.1297 -81.3831 227° Southwest 203 234 8,100  Level Atlanta Center
08:59AM 36.0911 -81.4333 226° Southwest 203 234 8,100  Level Atlanta Center
09:00AM 36.0483 -81.4808 222° Southwest 203 234 8,100  Level Atlanta Center
09:01AM 36.0117 -81.5283 226° Southwest 203 234 8,100  Level Atlanta Center
09:02AM 35.9711 -81.5783 225° Southwest 203 234 8,100  Level Atlanta Center
09:03AM 35.9325 -81.6281 226° Southwest 198 228 8,100  Level Atlanta Center
09:04AM 35.8917 -81.6781 225° Southwest 198 228 8,100  Level Atlanta Center
09:05AM 35.8528 -81.7253 225° Southwest 198 228 8,100  Level Atlanta Center
09:06AM 35.8183 -81.7697 226° Southwest 198 228 8,100  Level Atlanta Center
09:07AM 35.7775 -81.8194 225° Southwest 203 234 8,100  Level Atlanta Center
09:08AM 35.7408 -81.8639 225° Southwest 198 228 8,100  Level Atlanta Center
09:09AM 35.6997 -81.9111 223° Southwest 198 228 8,100  Level Atlanta Center
09:10AM 35.6631 -81.9581 226° Southwest 198 228 8,100  Level Atlanta Center
09:11AM 35.6242 -82.0050 224° Southwest 198 228 8,100  Level Atlanta Center
09:12AM 35.5894 -82.0519 228° Southwest 191 220 8,100  Level Atlanta Center
09:13AM 35.5444 -82.1042 223° Southwest 197 227 8,100  Level Atlanta Center
09:14AM 35.5078 -82.1533 228° Southwest 197 227 8,100  Level Atlanta Center
09:15AM 35.4667 -82.2003 223° Southwest 197 227 8,100  Level Atlanta Center
09:16AM 35.4256 -82.2494 224° Southwest 202 232 8,100  Level Atlanta Center
09:17AM 35.3867 -82.3014 227° Southwest 202 232 8,100  Level Atlanta Center
09:18AM 35.3458 -82.3506 224° Southwest 202 232 8,100  Level Atlanta Center
09:19AM 35.3025 -82.4025 224° Southwest 207 238 8,100  Level Atlanta Center
09:20AM 35.2656 -82.4464 224° Southwest 205 236 8,100  Level Atlanta Center
09:21AM 35.2244 -82.4956 224° Southwest 205 236 8,100  Level Atlanta Center
09:22AM 35.1814 -82.5497 226° Southwest 209 241 8,100  Level Atlanta Center
09:23AM 35.1422 -82.5961 224° Southwest 214 246 8,100  Level Atlanta Center
09:24AM 35.1011 -82.6425 223° Southwest 214 246 8,100  Level Atlanta Center
09:25AM 35.0600 -82.6889 223° Southwest 214 246 8,100  Level Atlanta Center
09:26AM 35.0186 -82.7353 223° Southwest 214 246 8,100  Level Atlanta Center
09:27AM 34.9794 -82.7917 230° Southwest 214 246 8,100  Level Atlanta Center
09:28AM 34.9383 -82.8378 223° Southwest 214 246 8,100  Level Atlanta Center
09:29AM 34.8969 -82.8892 226° Southwest 214 246 8,100  Level Atlanta Center
09:30AM 34.8558 -82.9353 223° Southwest 208 239 8,100  Level Atlanta Center
09:31AM 34.8144 -82.9811 222° Southwest 208 239 8,100  Level Atlanta Center
09:32AM 34.7731 -83.0297 224° Southwest 213 245 8,100  Level Atlanta Center
09:33AM 34.7381 -83.0783 229° Southwest 213 245 8,100  Level Atlanta Center
09:34AM 34.6967 -83.1267 224° Southwest 213 245 8,100  Level Atlanta Center
09:35AM 34.6553 -83.1725 222° Southwest 213 245 8,100  Level Atlanta Center
09:36AM 34.6139 -83.2236 225° Southwest 213 245 8,100  Level Atlanta Center
09:37AM 34.5767 -83.2642 222° Southwest 205 236 8,100  Level Atlanta Center
09:38AM 34.5350 -83.3150 225° Southwest 205 236 8,100 -60 Level Atlanta Center
09:39AM 34.4958 -83.3608 224° Southwest 205 236 8,000 -180 Descending Atlanta Center
09:40AM 34.4522 -83.4117 224° Southwest 205 236 7,800 -180 Descending Atlanta Center
09:41AM 34.4128 -83.4597 225° Southwest 205 236 7,700 -120 Descending Atlanta Center
09:42AM 34.3650 -83.5103 221° Southwest 210 242 7,600 -300 Descending Atlanta Center
09:43AM 34.3233 -83.5608 225° Southwest 215 247 7,100 -540 Descending Atlanta Center
09:44AM 34.2881 -83.6114 230° Southwest 209 241 6,600 -480 Descending Atlanta Center
09:45AM 34.2467 -83.6569 222° Southwest 201 231 6,200 -660 Descending Atlanta Center
09:46AM 34.1903 -83.6897 206° Southwest 220 253 5,300 -780 Descending Atlanta Center
09:47AM 34.1361 -83.7300 212° Southwest 233 268 4,700 -600 Descending Atlanta Center
09:48AM 34.0925 -83.7603 210° Southwest 228 262 4,200 -600 Descending Atlanta Center
09:49AM 34.0444 -83.7981 213° Southwest 216 249 3,600 -660 Descending Atlanta Center
09:50AM 34.0217 -83.8583 246° West 198 228 2,900 -960 Descending Atlanta Center
09:50AM 34.0000 -83.9000 238° Southwest 167 192 2,000 -1,260 Descending Atlanta TRACON
09:52AM 33.9667 -83.9500 180° South  Level FlightAware Approximate
09:59AM 33.9781 -83.9624 180° South  Level Estimated
10:00AM 33.9781 -83.9624 180° South  Level Estimated